sensor_id;sensor_type;location;lat;lon;timestamp;P1;durP1;ratioP1;P2;durP2;ratioP2
13733;SDS011;43298;52.560;13.508;2024-03-17T00:01:54;0.90;;;0.90;;
13733;SDS011;43298;52.560;13.508;2024-03-17T00:04:20;0.90;;;0.90;;
13733;SDS011;43298;52.560;13.508;2024-03-17T00:06:46;0.90;;;0.90;;
13733;SDS011;43298;52.560;13.508;2024-03-17T00:09:12;0.80;;;0.80;;
13733;SDS011;43298;52.560;13.508;2024-03-17T00:11:38;0.88;;;0.88;;
13733;SDS011;43298;52.560;13.508;2024-03-17T00:14:04;0.90;;;0.90;;
13733;SDS011;43298;52.560;13.508;2024-03-17T00:16:30;0.93;;;0.93;;
13733;SDS011;43298;52.560;13.508;2024-03-17T00:18:56;0.90;;;0.90;;
13733;SDS011;43298;52.560;13.508;2024-03-17T00:21:22;1.00;;;1.00;;
13733;SDS011;43298;52.560;13.508;2024-03-17T00:23:49;0.90;;;0.90;;
13733;SDS011;43298;52.560;13.508;2024-03-17T00:26:15;0.80;;;0.80;;
13733;SDS011;43298;52.560;13.508;2024-03-17T00:28:41;0.90;;;0.90;;
13733;SDS011;43298;52.560;13.508;2024-03-17T00:31:07;0.90;;;0.90;;
13733;SDS011;43298;52.560;13.508;2024-03-17T00:33:36;0.90;;;0.90;;
13733;SDS011;43298;52.560;13.508;2024-03-17T00:36:02;1.00;;;1.00;;
13733;SDS011;43298;52.560;13.508;2024-03-17T00:38:28;1.00;;;1.00;;
13733;SDS011;43298;52.560;13.508;2024-03-17T00:40:54;1.02;;;1.02;;
13733;SDS011;43298;52.560;13.508;2024-03-17T00:43:20;1.00;;;1.00;;
13733;SDS011;43298;52.560;13.508;2024-03-17T00:45:52;0.90;;;0.90;;
13733;SDS011;43298;52.560;13.508;2024-03-17T00:48:18;1.00;;;1.00;;
13733;SDS011;43298;52.560;13.508;2024-03-17T00:50:44;1.10;;;1.10;;
13733;SDS011;43298;52.560;13.508;2024-03-17T00:53:13;1.00;;;1.00;;
13733;SDS011;43298;52.560;13.508;2024-03-17T00:55:39;1.00;;;1.00;;
13733;SDS011;43298;52.560;13.508;2024-03-17T00:58:05;1.00;;;1.00;;
13733;SDS011;43298;52.560;13.508;2024-03-17T01:00:31;0.90;;;0.90;;
13733;SDS011;43298;52.560;13.508;2024-03-17T01:03:00;0.90;;;0.90;;
13733;SDS011;43298;52.560;13.508;2024-03-17T01:05:25;1.00;;;1.00;;
13733;SDS011;43298;52.560;13.508;2024-03-17T01:07:51;1.00;;;1.00;;
13733;SDS011;43298;52.560;13.508;2024-03-17T01:10:18;1.00;;;1.00;;
13733;SDS011;43298;52.560;13.508;2024-03-17T01:12:44;1.00;;;1.00;;
13733;SDS011;43298;52.560;13.508;2024-03-17T01:15:10;1.00;;;1.00;;
13733;SDS011;43298;52.560;13.508;2024-03-17T01:17:36;0.90;;;0.90;;
13733;SDS011;43298;52.560;13.508;2024-03-17T01:20:02;0.90;;;0.90;;
13733;SDS011;43298;52.560;13.508;2024-03-17T01:22:28;0.80;;;0.80;;
13733;SDS011;43298;52.560;13.508;2024-03-17T01:24:54;0.90;;;0.90;;
13733;SDS011;43298;52.560;13.508;2024-03-17T01:27:20;0.90;;;0.90;;
13733;SDS011;43298;52.560;13.508;2024-03-17T01:29:45;1.00;;;1.00;;
13733;SDS011;43298;52.560;13.508;2024-03-17T01:32:11;0.80;;;0.80;;
13733;SDS011;43298;52.560;13.508;2024-03-17T01:34:37;0.90;;;0.90;;
13733;SDS011;43298;52.560;13.508;2024-03-17T01:37:03;0.90;;;0.90;;
13733;SDS011;43298;52.560;13.508;2024-03-17T01:39:29;0.93;;;0.93;;
13733;SDS011;43298;52.560;13.508;2024-03-17T01:41:58;0.90;;;0.90;;
13733;SDS011;43298;52.560;13.508;2024-03-17T01:44:24;1.00;;;1.00;;
13733;SDS011;43298;52.560;13.508;2024-03-17T01:46:53;0.93;;;0.93;;
13733;SDS011;43298;52.560;13.508;2024-03-17T01:49:20;0.90;;;0.90;;
13733;SDS011;43298;52.560;13.508;2024-03-17T01:51:48;1.10;;;1.10;;
13733;SDS011;43298;52.560;13.508;2024-03-17T01:54:16;1.00;;;1.00;;
13733;SDS011;43298;52.560;13.508;2024-03-17T01:56:42;1.00;;;1.00;;
13733;SDS011;43298;52.560;13.508;2024-03-17T01:59:08;0.98;;;0.98;;
13733;SDS011;43298;52.560;13.508;2024-03-17T02:01:35;1.00;;;1.00;;
13733;SDS011;43298;52.560;13.508;2024-03-17T02:04:03;1.00;;;1.00;;
13733;SDS011;43298;52.560;13.508;2024-03-17T02:06:30;1.00;;;1.00;;
13733;SDS011;43298;52.560;13.508;2024-03-17T02:08:56;1.00;;;1.00;;
13733;SDS011;43298;52.560;13.508;2024-03-17T02:11:26;1.05;;;1.05;;
13733;SDS011;43298;52.560;13.508;2024-03-17T02:13:57;0.90;;;0.90;;
13733;SDS011;43298;52.560;13.508;2024-03-17T02:16:26;0.90;;;0.90;;
13733;SDS011;43298;52.560;13.508;2024-03-17T02:18:55;1.00;;;1.00;;
13733;SDS011;43298;52.560;13.508;2024-03-17T02:21:23;1.00;;;1.00;;
13733;SDS011;43298;52.560;13.508;2024-03-17T02:23:52;0.88;;;0.88;;
13733;SDS011;43298;52.560;13.508;2024-03-17T02:26:19;0.90;;;0.90;;
13733;SDS011;43298;52.560;13.508;2024-03-17T02:28:45;0.90;;;0.90;;
13733;SDS011;43298;52.560;13.508;2024-03-17T02:31:13;1.13;;;1.13;;
13733;SDS011;43298;52.560;13.508;2024-03-17T02:33:41;0.90;;;0.90;;
13733;SDS011;43298;52.560;13.508;2024-03-17T02:36:08;1.00;;;1.00;;
13733;SDS011;43298;52.560;13.508;2024-03-17T02:38:37;1.00;;;1.00;;
13733;SDS011;43298;52.560;13.508;2024-03-17T02:41:25;0.95;;;0.95;;
13733;SDS011;43298;52.560;13.508;2024-03-17T02:43:52;1.02;;;1.02;;
13733;SDS011;43298;52.560;13.508;2024-03-17T02:46:18;1.00;;;1.00;;
13733;SDS011;43298;52.560;13.508;2024-03-17T02:48:47;1.00;;;1.00;;
13733;SDS011;43298;52.560;13.508;2024-03-17T02:51:17;0.98;;;0.98;;
13733;SDS011;43298;52.560;13.508;2024-03-17T02:53:45;1.00;;;1.00;;
13733;SDS011;43298;52.560;13.508;2024-03-17T02:56:13;1.10;;;1.10;;
13733;SDS011;43298;52.560;13.508;2024-03-17T02:58:43;1.10;;;1.10;;
13733;SDS011;43298;52.560;13.508;2024-03-17T03:01:13;1.08;;;1.08;;
13733;SDS011;43298;52.560;13.508;2024-03-17T03:03:40;1.10;;;1.10;;
13733;SDS011;43298;52.560;13.508;2024-03-17T03:06:06;1.05;;;1.05;;
13733;SDS011;43298;52.560;13.508;2024-03-17T03:08:37;1.13;;;1.13;;
13733;SDS011;43298;52.560;13.508;2024-03-17T03:11:06;1.10;;;1.10;;
13733;SDS011;43298;52.560;13.508;2024-03-17T03:13:36;1.70;;;1.30;;
13733;SDS011;43298;52.560;13.508;2024-03-17T03:16:06;1.10;;;1.10;;
13733;SDS011;43298;52.560;13.508;2024-03-17T03:18:33;1.40;;;1.40;;
13733;SDS011;43298;52.560;13.508;2024-03-17T03:21:00;1.00;;;1.00;;
13733;SDS011;43298;52.560;13.508;2024-03-17T03:23:26;1.10;;;1.10;;
13733;SDS011;43298;52.560;13.508;2024-03-17T03:25:55;1.05;;;1.05;;
13733;SDS011;43298;52.560;13.508;2024-03-17T03:28:24;1.10;;;1.10;;
13733;SDS011;43298;52.560;13.508;2024-03-17T03:30:51;1.00;;;1.00;;
13733;SDS011;43298;52.560;13.508;2024-03-17T03:33:18;1.02;;;1.02;;
13733;SDS011;43298;52.560;13.508;2024-03-17T03:35:45;1.30;;;1.30;;
13733;SDS011;43298;52.560;13.508;2024-03-17T03:38:11;1.00;;;1.00;;
13733;SDS011;43298;52.560;13.508;2024-03-17T03:40:39;1.10;;;1.10;;
13733;SDS011;43298;52.560;13.508;2024-03-17T03:43:08;1.00;;;1.00;;
13733;SDS011;43298;52.560;13.508;2024-03-17T03:45:35;1.10;;;1.10;;
13733;SDS011;43298;52.560;13.508;2024-03-17T03:48:02;1.20;;;1.20;;
13733;SDS011;43298;52.560;13.508;2024-03-17T03:50:29;1.10;;;1.10;;
13733;SDS011;43298;52.560;13.508;2024-03-17T03:52:56;1.10;;;1.10;;
13733;SDS011;43298;52.560;13.508;2024-03-17T03:55:22;1.15;;;1.15;;
13733;SDS011;43298;52.560;13.508;2024-03-17T03:57:48;1.17;;;1.17;;
13733;SDS011;43298;52.560;13.508;2024-03-17T04:00:17;1.20;;;1.20;;
13733;SDS011;43298;52.560;13.508;2024-03-17T04:02:47;0.90;;;0.90;;
13733;SDS011;43298;52.560;13.508;2024-03-17T04:05:17;1.00;;;1.00;;
13733;SDS011;43298;52.560;13.508;2024-03-17T04:07:45;1.20;;;1.20;;
13733;SDS011;43298;52.560;13.508;2024-03-17T04:10:13;1.20;;;1.20;;
13733;SDS011;43298;52.560;13.508;2024-03-17T04:12:40;1.20;;;1.20;;
13733;SDS011;43298;52.560;13.508;2024-03-17T04:15:08;1.20;;;1.20;;
13733;SDS011;43298;52.560;13.508;2024-03-17T04:17:35;1.20;;;1.20;;
13733;SDS011;43298;52.560;13.508;2024-03-17T04:20:05;1.30;;;1.30;;
13733;SDS011;43298;52.560;13.508;2024-03-17T04:22:38;1.30;;;1.30;;
13733;SDS011;43298;52.560;13.508;2024-03-17T04:25:04;1.35;;;1.35;;
13733;SDS011;43298;52.560;13.508;2024-03-17T04:27:30;1.20;;;1.20;;
13733;SDS011;43298;52.560;13.508;2024-03-17T04:29:59;1.27;;;1.27;;
13733;SDS011;43298;52.560;13.508;2024-03-17T04:32:25;1.30;;;1.30;;
13733;SDS011;43298;52.560;13.508;2024-03-17T04:34:52;1.10;;;1.10;;
13733;SDS011;43298;52.560;13.508;2024-03-17T04:37:18;1.13;;;1.13;;
13733;SDS011;43298;52.560;13.508;2024-03-17T04:39:44;1.30;;;1.30;;
13733;SDS011;43298;52.560;13.508;2024-03-17T04:42:15;1.20;;;1.20;;
13733;SDS011;43298;52.560;13.508;2024-03-17T04:44:43;1.30;;;1.30;;
13733;SDS011;43298;52.560;13.508;2024-03-17T04:47:10;1.27;;;1.27;;
13733;SDS011;43298;52.560;13.508;2024-03-17T04:49:37;1.30;;;1.30;;
13733;SDS011;43298;52.560;13.508;2024-03-17T04:52:07;1.30;;;1.30;;
13733;SDS011;43298;52.560;13.508;2024-03-17T04:54:34;1.30;;;1.30;;
13733;SDS011;43298;52.560;13.508;2024-03-17T04:57:00;1.20;;;1.20;;
13733;SDS011;43298;52.560;13.508;2024-03-17T04:59:27;1.20;;;1.20;;
13733;SDS011;43298;52.560;13.508;2024-03-17T05:01:53;1.30;;;1.30;;
13733;SDS011;43298;52.560;13.508;2024-03-17T05:04:19;1.13;;;1.13;;
13733;SDS011;43298;52.560;13.508;2024-03-17T05:06:45;1.30;;;1.30;;
13733;SDS011;43298;52.560;13.508;2024-03-17T05:09:14;1.10;;;1.10;;
13733;SDS011;43298;52.560;13.508;2024-03-17T05:11:44;1.20;;;1.20;;
13733;SDS011;43298;52.560;13.508;2024-03-17T05:14:10;1.30;;;1.30;;
13733;SDS011;43298;52.560;13.508;2024-03-17T05:16:37;1.95;;;1.85;;
13733;SDS011;43298;52.560;13.508;2024-03-17T05:19:02;1.30;;;1.30;;
13733;SDS011;43298;52.560;13.508;2024-03-17T05:21:28;1.20;;;1.20;;
13733;SDS011;43298;52.560;13.508;2024-03-17T05:23:55;1.30;;;1.30;;
13733;SDS011;43298;52.560;13.508;2024-03-17T05:26:23;1.30;;;1.30;;
13733;SDS011;43298;52.560;13.508;2024-03-17T05:28:49;1.20;;;1.20;;
13733;SDS011;43298;52.560;13.508;2024-03-17T05:31:16;1.30;;;1.30;;
13733;SDS011;43298;52.560;13.508;2024-03-17T05:33:43;1.30;;;1.30;;
13733;SDS011;43298;52.560;13.508;2024-03-17T05:36:11;1.30;;;1.30;;
13733;SDS011;43298;52.560;13.508;2024-03-17T05:38:37;1.30;;;1.30;;
13733;SDS011;43298;52.560;13.508;2024-03-17T05:41:04;1.30;;;1.30;;
13733;SDS011;43298;52.560;13.508;2024-03-17T05:43:34;1.20;;;1.20;;
13733;SDS011;43298;52.560;13.508;2024-03-17T05:46:03;1.20;;;1.20;;
13733;SDS011;43298;52.560;13.508;2024-03-17T05:48:38;1.20;;;1.20;;
13733;SDS011;43298;52.560;13.508;2024-03-17T05:51:09;1.40;;;1.40;;
13733;SDS011;43298;52.560;13.508;2024-03-17T05:53:37;1.30;;;1.30;;
13733;SDS011;43298;52.560;13.508;2024-03-17T05:56:09;1.30;;;1.30;;
13733;SDS011;43298;52.560;13.508;2024-03-17T05:58:37;1.27;;;1.27;;
13733;SDS011;43298;52.560;13.508;2024-03-17T06:01:04;1.10;;;1.10;;
13733;SDS011;43298;52.560;13.508;2024-03-17T06:03:32;1.30;;;1.30;;
13733;SDS011;43298;52.560;13.508;2024-03-17T06:06:00;1.40;;;1.40;;
13733;SDS011;43298;52.560;13.508;2024-03-17T06:08:28;1.27;;;1.27;;
13733;SDS011;43298;52.560;13.508;2024-03-17T06:10:54;1.75;;;1.70;;
13733;SDS011;43298;52.560;13.508;2024-03-17T06:13:25;1.27;;;1.27;;
13733;SDS011;43298;52.560;13.508;2024-03-17T06:15:53;1.30;;;1.30;;
13733;SDS011;43298;52.560;13.508;2024-03-17T06:18:19;1.23;;;1.23;;
13733;SDS011;43298;52.560;13.508;2024-03-17T06:20:45;1.10;;;1.10;;
13733;SDS011;43298;52.560;13.508;2024-03-17T06:23:16;1.30;;;1.30;;
13733;SDS011;43298;52.560;13.508;2024-03-17T06:28:15;1.10;;;1.10;;
13733;SDS011;43298;52.560;13.508;2024-03-17T06:33:11;1.00;;;1.00;;
13733;SDS011;43298;52.560;13.508;2024-03-17T06:35:38;0.90;;;0.90;;
13733;SDS011;43298;52.560;13.508;2024-03-17T06:38:04;0.85;;;0.85;;
13733;SDS011;43298;52.560;13.508;2024-03-17T06:40:34;0.90;;;0.90;;
13733;SDS011;43298;52.560;13.508;2024-03-17T06:43:03;1.00;;;1.00;;
13733;SDS011;43298;52.560;13.508;2024-03-17T06:45:30;0.90;;;0.90;;
13733;SDS011;43298;52.560;13.508;2024-03-17T06:47:57;1.00;;;1.00;;
13733;SDS011;43298;52.560;13.508;2024-03-17T06:50:23;0.90;;;0.90;;
13733;SDS011;43298;52.560;13.508;2024-03-17T06:52:49;0.90;;;0.90;;
13733;SDS011;43298;52.560;13.508;2024-03-17T06:55:17;2.38;;;2.28;;
13733;SDS011;43298;52.560;13.508;2024-03-17T06:57:46;0.80;;;0.80;;
13733;SDS011;43298;52.560;13.508;2024-03-17T07:00:12;0.88;;;0.88;;
13733;SDS011;43298;52.560;13.508;2024-03-17T07:02:49;0.80;;;0.80;;
13733;SDS011;43298;52.560;13.508;2024-03-17T07:05:15;0.80;;;0.80;;
13733;SDS011;43298;52.560;13.508;2024-03-17T07:07:41;0.70;;;0.70;;
13733;SDS011;43298;52.560;13.508;2024-03-17T07:10:08;0.90;;;0.90;;
13733;SDS011;43298;52.560;13.508;2024-03-17T07:12:36;0.75;;;0.75;;
13733;SDS011;43298;52.560;13.508;2024-03-17T07:15:02;0.80;;;0.80;;
13733;SDS011;43298;52.560;13.508;2024-03-17T07:17:29;0.70;;;0.70;;
13733;SDS011;43298;52.560;13.508;2024-03-17T07:19:55;0.70;;;0.70;;
13733;SDS011;43298;52.560;13.508;2024-03-17T07:22:21;0.60;;;0.60;;
13733;SDS011;43298;52.560;13.508;2024-03-17T07:24:47;1.30;;;1.20;;
13733;SDS011;43298;52.560;13.508;2024-03-17T07:27:20;0.70;;;0.70;;
13733;SDS011;43298;52.560;13.508;2024-03-17T07:29:46;0.80;;;0.80;;
13733;SDS011;43298;52.560;13.508;2024-03-17T07:32:12;0.60;;;0.60;;
13733;SDS011;43298;52.560;13.508;2024-03-17T07:34:37;2.58;;;1.60;;
13733;SDS011;43298;52.560;13.508;2024-03-17T07:37:03;0.60;;;0.60;;
13733;SDS011;43298;52.560;13.508;2024-03-17T07:39:29;0.65;;;0.65;;
13733;SDS011;43298;52.560;13.508;2024-03-17T07:42:01;0.60;;;0.60;;
13733;SDS011;43298;52.560;13.508;2024-03-17T07:44:30;0.70;;;0.70;;
13733;SDS011;43298;52.560;13.508;2024-03-17T07:47:02;1.17;;;1.08;;
13733;SDS011;43298;52.560;13.508;2024-03-17T07:49:29;0.60;;;0.60;;
13733;SDS011;43298;52.560;13.508;2024-03-17T07:51:56;0.70;;;0.70;;
13733;SDS011;43298;52.560;13.508;2024-03-17T07:54:23;0.60;;;0.60;;
13733;SDS011;43298;52.560;13.508;2024-03-17T07:56:52;0.60;;;0.60;;
13733;SDS011;43298;52.560;13.508;2024-03-17T07:59:18;0.60;;;0.60;;
13733;SDS011;43298;52.560;13.508;2024-03-17T08:01:44;0.70;;;0.70;;
13733;SDS011;43298;52.560;13.508;2024-03-17T08:04:10;0.60;;;0.60;;
13733;SDS011;43298;52.560;13.508;2024-03-17T08:06:39;0.60;;;0.60;;
13733;SDS011;43298;52.560;13.508;2024-03-17T08:09:06;0.55;;;0.55;;
13733;SDS011;43298;52.560;13.508;2024-03-17T08:11:35;0.50;;;0.50;;
13733;SDS011;43298;52.560;13.508;2024-03-17T08:14:01;0.60;;;0.60;;
13733;SDS011;43298;52.560;13.508;2024-03-17T08:16:27;0.55;;;0.55;;
13733;SDS011;43298;52.560;13.508;2024-03-17T08:18:54;0.40;;;0.40;;
13733;SDS011;43298;52.560;13.508;2024-03-17T08:21:21;0.50;;;0.50;;
13733;SDS011;43298;52.560;13.508;2024-03-17T08:23:47;0.60;;;0.60;;
13733;SDS011;43298;52.560;13.508;2024-03-17T08:26:13;0.50;;;0.50;;
13733;SDS011;43298;52.560;13.508;2024-03-17T08:28:39;0.50;;;0.50;;
13733;SDS011;43298;52.560;13.508;2024-03-17T08:31:05;0.50;;;0.50;;
13733;SDS011;43298;52.560;13.508;2024-03-17T08:33:31;0.50;;;0.50;;
13733;SDS011;43298;52.560;13.508;2024-03-17T08:35:59;0.60;;;0.60;;
13733;SDS011;43298;52.560;13.508;2024-03-17T08:38:27;1.40;;;1.30;;
13733;SDS011;43298;52.560;13.508;2024-03-17T08:40:56;2.63;;;1.90;;
13733;SDS011;43298;52.560;13.508;2024-03-17T08:43:26;0.50;;;0.50;;
13733;SDS011;43298;52.560;13.508;2024-03-17T08:45:56;1.08;;;1.08;;
13733;SDS011;43298;52.560;13.508;2024-03-17T08:48:26;1.02;;;1.02;;
13733;SDS011;43298;52.560;13.508;2024-03-17T08:50:54;1.25;;;1.25;;
13733;SDS011;43298;52.560;13.508;2024-03-17T08:53:20;0.88;;;0.88;;
13733;SDS011;43298;52.560;13.508;2024-03-17T08:55:47;0.50;;;0.50;;
13733;SDS011;43298;52.560;13.508;2024-03-17T08:58:13;0.40;;;0.40;;
13733;SDS011;43298;52.560;13.508;2024-03-17T09:00:39;0.50;;;0.50;;
13733;SDS011;43298;52.560;13.508;2024-03-17T09:03:09;0.60;;;0.60;;
13733;SDS011;43298;52.560;13.508;2024-03-17T09:05:37;1.13;;;1.13;;
13733;SDS011;43298;52.560;13.508;2024-03-17T09:08:04;0.50;;;0.50;;
13733;SDS011;43298;52.560;13.508;2024-03-17T09:10:43;0.60;;;0.60;;
13733;SDS011;43298;52.560;13.508;2024-03-17T09:13:15;0.70;;;0.70;;
13733;SDS011;43298;52.560;13.508;2024-03-17T09:18:25;0.40;;;0.40;;
13733;SDS011;43298;52.560;13.508;2024-03-17T09:20:55;1.25;;;1.15;;
13733;SDS011;43298;52.560;13.508;2024-03-17T09:23:27;0.60;;;0.60;;
13733;SDS011;43298;52.560;13.508;2024-03-17T09:28:27;0.85;;;0.85;;
13733;SDS011;43298;52.560;13.508;2024-03-17T09:30:54;0.40;;;0.40;;
13733;SDS011;43298;52.560;13.508;2024-03-17T09:33:21;0.30;;;0.30;;
13733;SDS011;43298;52.560;13.508;2024-03-17T09:35:59;0.55;;;0.55;;
13733;SDS011;43298;52.560;13.508;2024-03-17T09:38:26;0.40;;;0.40;;
13733;SDS011;43298;52.560;13.508;2024-03-17T09:40:55;0.38;;;0.38;;
13733;SDS011;43298;52.560;13.508;2024-03-17T09:43:36;0.30;;;0.30;;
13733;SDS011;43298;52.560;13.508;2024-03-17T09:46:02;1.60;;;0.68;;
13733;SDS011;43298;52.560;13.508;2024-03-17T09:48:30;0.40;;;0.40;;
13733;SDS011;43298;52.560;13.508;2024-03-17T09:50:56;0.30;;;0.30;;
13733;SDS011;43298;52.560;13.508;2024-03-17T09:56:05;0.40;;;0.40;;
13733;SDS011;43298;52.560;13.508;2024-03-17T09:58:40;0.30;;;0.30;;
13733;SDS011;43298;52.560;13.508;2024-03-17T10:01:06;0.30;;;0.30;;
13733;SDS011;43298;52.560;13.508;2024-03-17T10:06:15;0.30;;;0.30;;
13733;SDS011;43298;52.560;13.508;2024-03-17T10:08:42;2.03;;;1.38;;
13733;SDS011;43298;52.560;13.508;2024-03-17T10:11:13;0.30;;;0.30;;
13733;SDS011;43298;52.560;13.508;2024-03-17T10:13:42;0.30;;;0.30;;
13733;SDS011;43298;52.560;13.508;2024-03-17T10:16:21;0.30;;;0.30;;
13733;SDS011;43298;52.560;13.508;2024-03-17T10:18:50;0.28;;;0.28;;
13733;SDS011;43298;52.560;13.508;2024-03-17T10:21:35;0.30;;;0.30;;
13733;SDS011;43298;52.560;13.508;2024-03-17T10:24:12;0.47;;;0.47;;
13733;SDS011;43298;52.560;13.508;2024-03-17T10:26:56;0.40;;;0.40;;
13733;SDS011;43298;52.560;13.508;2024-03-17T10:29:33;0.30;;;0.30;;
13733;SDS011;43298;52.560;13.508;2024-03-17T10:32:04;1.65;;;1.35;;
13733;SDS011;43298;52.560;13.508;2024-03-17T10:34:44;0.20;;;0.20;;
13733;SDS011;43298;52.560;13.508;2024-03-17T10:37:14;0.35;;;0.35;;
13733;SDS011;43298;52.560;13.508;2024-03-17T10:39:50;0.20;;;0.20;;
13733;SDS011;43298;52.560;13.508;2024-03-17T10:42:24;0.30;;;0.30;;
13733;SDS011;43298;52.560;13.508;2024-03-17T10:44:53;0.40;;;0.40;;
13733;SDS011;43298;52.560;13.508;2024-03-17T10:47:21;0.40;;;0.40;;
13733;SDS011;43298;52.560;13.508;2024-03-17T10:49:51;0.40;;;0.40;;
13733;SDS011;43298;52.560;13.508;2024-03-17T10:52:20;0.40;;;0.40;;
13733;SDS011;43298;52.560;13.508;2024-03-17T10:54:51;0.40;;;0.40;;
13733;SDS011;43298;52.560;13.508;2024-03-17T11:00:01;2.63;;;1.10;;
13733;SDS011;43298;52.560;13.508;2024-03-17T11:02:33;0.20;;;0.20;;
13733;SDS011;43298;52.560;13.508;2024-03-17T11:05:02;0.30;;;0.30;;
13733;SDS011;43298;52.560;13.508;2024-03-17T11:07:43;1.48;;;0.63;;
13733;SDS011;43298;52.560;13.508;2024-03-17T11:10:22;0.25;;;0.25;;
13733;SDS011;43298;52.560;13.508;2024-03-17T11:20:36;0.20;;;0.20;;
13733;SDS011;43298;52.560;13.508;2024-03-17T11:23:04;0.20;;;0.20;;
13733;SDS011;43298;52.560;13.508;2024-03-17T11:27:59;0.17;;;0.17;;
13733;SDS011;43298;52.560;13.508;2024-03-17T11:39:23;0.20;;;0.20;;
13733;SDS011;43298;52.560;13.508;2024-03-17T11:44:15;0.55;;;0.55;;
13733;SDS011;43298;52.560;13.508;2024-03-17T11:49:27;0.10;;;0.10;;
13733;SDS011;43298;52.560;13.508;2024-03-17T11:52:02;0.30;;;0.30;;
13733;SDS011;43298;52.560;13.508;2024-03-17T11:54:38;0.17;;;0.17;;
13733;SDS011;43298;52.560;13.508;2024-03-17T11:57:07;0.10;;;0.10;;
13733;SDS011;43298;52.560;13.508;2024-03-17T11:59:35;0.10;;;0.10;;
13733;SDS011;43298;52.560;13.508;2024-03-17T12:02:02;0.10;;;0.10;;
13733;SDS011;43298;52.560;13.508;2024-03-17T12:04:59;0.00;;;0.00;;
13733;SDS011;43298;52.560;13.508;2024-03-17T12:07:27;0.15;;;0.15;;
13733;SDS011;43298;52.560;13.508;2024-03-17T12:09:55;0.17;;;0.17;;
13733;SDS011;43298;52.560;13.508;2024-03-17T12:12:26;0.20;;;0.20;;
13733;SDS011;43298;52.560;13.508;2024-03-17T12:15:02;0.20;;;0.20;;
13733;SDS011;43298;52.560;13.508;2024-03-17T12:17:41;0.20;;;0.20;;
13733;SDS011;43298;52.560;13.508;2024-03-17T12:20:13;0.22;;;0.22;;
13733;SDS011;43298;52.560;13.508;2024-03-17T12:22:44;0.22;;;0.22;;
13733;SDS011;43298;52.560;13.508;2024-03-17T12:25:16;1.00;;;0.82;;
13733;SDS011;43298;52.560;13.508;2024-03-17T12:27:44;0.10;;;0.10;;
13733;SDS011;43298;52.560;13.508;2024-03-17T12:30:13;0.20;;;0.20;;
13733;SDS011;43298;52.560;13.508;2024-03-17T12:32:40;0.20;;;0.20;;
13733;SDS011;43298;52.560;13.508;2024-03-17T12:35:12;0.10;;;0.10;;
13733;SDS011;43298;52.560;13.508;2024-03-17T12:37:42;0.10;;;0.10;;
13733;SDS011;43298;52.560;13.508;2024-03-17T12:40:18;0.20;;;0.20;;
13733;SDS011;43298;52.560;13.508;2024-03-17T12:42:49;0.10;;;0.10;;
13733;SDS011;43298;52.560;13.508;2024-03-17T12:45:19;0.20;;;0.20;;
13733;SDS011;43298;52.560;13.508;2024-03-17T12:47:47;0.20;;;0.20;;
13733;SDS011;43298;52.560;13.508;2024-03-17T12:50:15;0.20;;;0.20;;
13733;SDS011;43298;52.560;13.508;2024-03-17T12:52:46;0.30;;;0.30;;
13733;SDS011;43298;52.560;13.508;2024-03-17T12:55:18;0.40;;;0.40;;
13733;SDS011;43298;52.560;13.508;2024-03-17T13:03:34;0.30;;;0.30;;
13733;SDS011;43298;52.560;13.508;2024-03-17T13:06:05;0.52;;;0.52;;
13733;SDS011;43298;52.560;13.508;2024-03-17T13:08:31;0.73;;;0.70;;
13733;SDS011;43298;52.560;13.508;2024-03-17T13:10:58;0.30;;;0.30;;
13733;SDS011;43298;52.560;13.508;2024-03-17T13:13:25;0.30;;;0.30;;
13733;SDS011;43298;52.560;13.508;2024-03-17T13:15:51;0.10;;;0.10;;
13733;SDS011;43298;52.560;13.508;2024-03-17T13:18:18;0.10;;;0.10;;
13733;SDS011;43298;52.560;13.508;2024-03-17T13:20:45;0.13;;;0.13;;
13733;SDS011;43298;52.560;13.508;2024-03-17T13:23:17;0.20;;;0.20;;
13733;SDS011;43298;52.560;13.508;2024-03-17T13:25:43;0.43;;;0.43;;
13733;SDS011;43298;52.560;13.508;2024-03-17T13:28:10;0.10;;;0.10;;
13733;SDS011;43298;52.560;13.508;2024-03-17T13:30:36;0.20;;;0.20;;
13733;SDS011;43298;52.560;13.508;2024-03-17T13:33:02;0.25;;;0.25;;
13733;SDS011;43298;52.560;13.508;2024-03-17T13:35:36;0.10;;;0.10;;
13733;SDS011;43298;52.560;13.508;2024-03-17T13:38:07;0.30;;;0.30;;
13733;SDS011;43298;52.560;13.508;2024-03-17T13:40:36;0.20;;;0.20;;
13733;SDS011;43298;52.560;13.508;2024-03-17T13:43:04;0.30;;;0.30;;
13733;SDS011;43298;52.560;13.508;2024-03-17T13:45:40;0.20;;;0.20;;
13733;SDS011;43298;52.560;13.508;2024-03-17T13:48:08;0.30;;;0.30;;
13733;SDS011;43298;52.560;13.508;2024-03-17T13:50:39;0.35;;;0.20;;
13733;SDS011;43298;52.560;13.508;2024-03-17T13:53:09;0.20;;;0.20;;
13733;SDS011;43298;52.560;13.508;2024-03-17T13:55:35;0.20;;;0.20;;
13733;SDS011;43298;52.560;13.508;2024-03-17T13:58:01;0.17;;;0.17;;
13733;SDS011;43298;52.560;13.508;2024-03-17T14:00:29;0.63;;;0.63;;
13733;SDS011;43298;52.560;13.508;2024-03-17T14:02:56;0.15;;;0.15;;
13733;SDS011;43298;52.560;13.508;2024-03-17T14:05:23;0.65;;;0.65;;
13733;SDS011;43298;52.560;13.508;2024-03-17T14:07:51;2.38;;;2.17;;
13733;SDS011;43298;52.560;13.508;2024-03-17T14:10:19;0.30;;;0.30;;
13733;SDS011;43298;52.560;13.508;2024-03-17T14:12:47;0.20;;;0.20;;
13733;SDS011;43298;52.560;13.508;2024-03-17T14:15:13;0.30;;;0.30;;
13733;SDS011;43298;52.560;13.508;2024-03-17T14:17:40;0.30;;;0.30;;
13733;SDS011;43298;52.560;13.508;2024-03-17T14:20:09;0.30;;;0.30;;
13733;SDS011;43298;52.560;13.508;2024-03-17T14:22:36;0.20;;;0.20;;
13733;SDS011;43298;52.560;13.508;2024-03-17T14:25:06;0.22;;;0.22;;
13733;SDS011;43298;52.560;13.508;2024-03-17T14:27:35;0.20;;;0.20;;
13733;SDS011;43298;52.560;13.508;2024-03-17T14:30:02;0.20;;;0.20;;
13733;SDS011;43298;52.560;13.508;2024-03-17T14:32:29;18.23;;;0.85;;
13733;SDS011;43298;52.560;13.508;2024-03-17T14:34:55;0.10;;;0.10;;
13733;SDS011;43298;52.560;13.508;2024-03-17T14:37:21;0.20;;;0.20;;
13733;SDS011;43298;52.560;13.508;2024-03-17T14:39:54;0.20;;;0.20;;
13733;SDS011;43298;52.560;13.508;2024-03-17T14:42:20;0.15;;;0.15;;
13733;SDS011;43298;52.560;13.508;2024-03-17T14:44:46;0.20;;;0.20;;
13733;SDS011;43298;52.560;13.508;2024-03-17T14:47:12;0.20;;;0.20;;
13733;SDS011;43298;52.560;13.508;2024-03-17T14:49:39;0.30;;;0.30;;
13733;SDS011;43298;52.560;13.508;2024-03-17T14:52:05;0.00;;;0.00;;
13733;SDS011;43298;52.560;13.508;2024-03-17T14:54:31;1.48;;;1.38;;
13733;SDS011;43298;52.560;13.508;2024-03-17T14:56:57;0.10;;;0.10;;
13733;SDS011;43298;52.560;13.508;2024-03-17T14:59:23;0.15;;;0.15;;
13733;SDS011;43298;52.560;13.508;2024-03-17T15:01:49;0.10;;;0.10;;
13733;SDS011;43298;52.560;13.508;2024-03-17T15:04:14;0.28;;;0.28;;
13733;SDS011;43298;52.560;13.508;2024-03-17T15:06:42;0.10;;;0.10;;
13733;SDS011;43298;52.560;13.508;2024-03-17T15:09:08;0.03;;;0.03;;
13733;SDS011;43298;52.560;13.508;2024-03-17T15:11:35;0.10;;;0.10;;
13733;SDS011;43298;52.560;13.508;2024-03-17T15:14:01;0.10;;;0.10;;
13733;SDS011;43298;52.560;13.508;2024-03-17T15:16:29;0.95;;;0.47;;
13733;SDS011;43298;52.560;13.508;2024-03-17T15:18:54;0.20;;;0.20;;
13733;SDS011;43298;52.560;13.508;2024-03-17T15:21:21;0.15;;;0.15;;
13733;SDS011;43298;52.560;13.508;2024-03-17T15:23:46;0.10;;;0.10;;
13733;SDS011;43298;52.560;13.508;2024-03-17T15:26:13;0.20;;;0.20;;
13733;SDS011;43298;52.560;13.508;2024-03-17T15:28:42;0.32;;;0.32;;